Map

Track Data

SID SEASON NUMBER BASIN SUBBASIN NAME ISO_TIME NATURE LAT LON WMO_WIND WMO_PRES WMO_AGENCY TRACK_TYPE DIST2LAND LANDFALL IFLAG USA_AGENCY USA_ATCF_ID USA_LAT USA_LON USA_RECORD USA_STATUS USA_WIND USA_PRES USA_SSHS USA_R34_NE USA_R34_SE USA_R34_SW USA_R34_NW USA_R50_NE USA_R50_SE USA_R50_SW USA_R50_NW USA_R64_NE USA_R64_SE USA_R64_SW USA_R64_NW USA_POCI USA_ROCI USA_RMW USA_EYE TOKYO_LAT TOKYO_LON TOKYO_GRADE TOKYO_WIND TOKYO_PRES TOKYO_R50_DIR TOKYO_R50_LONG TOKYO_R50_SHORT TOKYO_R30_DIR TOKYO_R30_LONG TOKYO_R30_SHORT TOKYO_LAND CMA_LAT CMA_LON CMA_CAT CMA_WIND CMA_PRES HKO_LAT HKO_LON HKO_CAT HKO_WIND HKO_PRES NEWDELHI_LAT NEWDELHI_LON NEWDELHI_GRADE NEWDELHI_WIND NEWDELHI_PRES NEWDELHI_CI NEWDELHI_DP NEWDELHI_POCI REUNION_LAT REUNION_LON REUNION_TYPE REUNION_WIND REUNION_PRES REUNION_TNUM REUNION_CI REUNION_RMW REUNION_R34_NE REUNION_R34_SE REUNION_R34_SW REUNION_R34_NW REUNION_R50_NE REUNION_R50_SE REUNION_R50_SW REUNION_R50_NW REUNION_R64_NE REUNION_R64_SE REUNION_R64_SW REUNION_R64_NW BOM_LAT BOM_LON BOM_TYPE BOM_WIND BOM_PRES BOM_TNUM BOM_CI BOM_RMW BOM_R34_NE BOM_R34_SE BOM_R34_SW BOM_R34_NW BOM_R50_NE BOM_R50_SE BOM_R50_SW BOM_R50_NW BOM_R64_NE BOM_R64_SE BOM_R64_SW BOM_R64_NW BOM_ROCI BOM_POCI BOM_EYE BOM_POS_METHOD BOM_PRES_METHOD NADI_LAT NADI_LON NADI_CAT NADI_WIND NADI_PRES WELLINGTON_LAT WELLINGTON_LON WELLINGTON_WIND WELLINGTON_PRES DS824_LAT DS824_LON DS824_STAGE DS824_WIND DS824_PRES TD9636_LAT TD9636_LON TD9636_STAGE TD9636_WIND TD9636_PRES TD9635_LAT TD9635_LON TD9635_WIND TD9635_PRES TD9635_ROCI NEUMANN_LAT NEUMANN_LON NEUMANN_CLASS NEUMANN_WIND NEUMANN_PRES MLC_LAT MLC_LON MLC_CLASS MLC_WIND MLC_PRES USA_GUST BOM_GUST BOM_GUST_PER REUNION_GUST REUNION_GUST_PER USA_SEAHGT USA_SEARAD_NE USA_SEARAD_SE USA_SEARAD_SW USA_SEARAD_NW STORM_SPEED STORM_DIR
1885322N12082 1885 53 NI BB NOT_NAMED 1885-11-18 00:00:00 TS 11.7000 81.6000 main 176 176 _________O____ -1 11.7000 81.6000 TC 34 0 0
1885322N12082 1885 53 NI BB NOT_NAMED 1885-11-18 03:00:00 TS 11.7000 81.6000 main 176 176 _________PO___ -1 11.7000 81.6000 TC 36 11.7000 81.6000 2 0 0
1885322N12082 1885 53 NI BB NOT_NAMED 1885-11-18 06:00:00 TS 11.7100 81.6075 main 176 176 _________OP___ -1 11.7000 81.6000 TC 39 11.7250 81.6186 2 0 0
1885322N12082 1885 53 NI BB NOT_NAMED 1885-11-18 09:00:00 TS 11.7172 81.6128 main 176 176 _________PP___ -1 11.7000 81.6000 TC 42 11.7401 81.6298 2 0 0
1885322N12082 1885 53 NI BB NOT_NAMED 1885-11-18 12:00:00 TS 11.7175 81.6130 main 176 176 _________OP___ -1 11.7000 81.6000 TC 45 11.7351 81.6261 2 0 0
1885322N12082 1885 53 NI BB NOT_NAMED 1885-11-18 15:00:00 TS 11.7000 81.6000 main 176 176 _________PO___ -1 11.7000 81.6000 TC 45 11.7000 81.6000 3 1 223
1885322N12082 1885 53 NI BB NOT_NAMED 1885-11-18 18:00:00 TS 11.6675 81.5758 main 176 173 _________OP___ -1 11.7000 81.6000 TC 45 11.6349 81.5516 3 1 212
1885322N12082 1885 53 NI BB NOT_NAMED 1885-11-18 21:00:00 TS 11.6174 81.5366 main 173 173 _________PP___ -1 11.6550 81.5626 TC 45 11.5798 81.5106 3 0 0
1885322N12082 1885 53 NI BB NOT_NAMED 1885-11-19 00:00:00 TS 11.6424 81.5572 main 182 176 _________OP___ -1 11.7000 81.6000 TC 45 11.5848 81.5143 3 3 39
1885322N12082 1885 53 NI BB NOT_NAMED 1885-11-19 03:00:00 TS 11.8125 81.6988 main 181 176 _________PO___ -1 11.9250 81.7976 TC 45 11.7000 81.6000 3 6 38
1885322N12082 1885 53 NI BB NOT_NAMED 1885-11-19 06:00:00 TS 12.1446 81.9547 main 200 196 _________OP___ -1 12.3000 82.1000 TC 45 11.9892 81.8093 3 10 36
1885322N12082 1885 53 NI BB NOT_NAMED 1885-11-19 09:00:00 TS 12.5864 82.2722 main 228 226 _________PP___ -1 12.7850 82.4424 TC 45 12.3877 82.1020 3 11 35
1885322N12082 1885 53 NI BB NOT_NAMED 1885-11-19 12:00:00 TS 13.0712 82.6219 main 250 250 _________OP___ -1 13.3000 82.8000 TC 45 12.8424 82.4437 3 11 36
1885322N12082 1885 53 NI BB NOT_NAMED 1885-11-19 15:00:00 TS 13.5112 82.9501 main 292 291 _________PO___ -1 13.7224 83.1002 TC 45 13.3000 82.8000 3 10 37
1885322N12082 1885 53 NI BB NOT_NAMED 1885-11-19 18:00:00 TS 13.8992 83.2670 main 317 292 _________OP___ -1 14.1000 83.4000 TC 45 13.6985 83.1340 3 10 40
1885322N12082 1885 53 NI BB NOT_NAMED 1885-11-19 21:00:00 TS 14.2763 83.6187 main 292 281 _________PP___ -1 14.4651 83.7650 TC 45 14.0876 83.4724 3 10 42
1885322N12082 1885 53 NI BB NOT_NAMED 1885-11-20 00:00:00 TS 14.6289 83.9498 main 281 270 _________OP___ -1 14.8000 84.1000 TC 45 14.4579 83.7996 3 9 40
1885322N12082 1885 53 NI BB NOT_NAMED 1885-11-20 03:00:00 TS 14.9574 84.2076 main 270 270 _________PO___ -1 15.1149 84.3152 TC 45 14.8000 84.1000 3 8 36
1885322N12082 1885 53 NI BB NOT_NAMED 1885-11-20 06:00:00 TS 15.2517 84.4231 main 267 267 _________OP___ -1 15.4000 84.5000 TC 45 15.1034 84.3462 3 7 38
1885322N12082 1885 53 NI BB NOT_NAMED 1885-11-20 09:00:00 TS 15.5148 84.6542 main 284 270 _________PP___ -1 15.6500 84.7426 TC 45 15.3796 84.5658 3 7 41
1885322N12082 1885 53 NI BB NOT_NAMED 1885-11-20 12:00:00 TS 15.7705 84.8887 main 270 262 _________OP___ -1 15.9000 85.0000 TC 45 15.6410 84.7774 3 7 40
1885322N12082 1885 53 NI BB NOT_NAMED 1885-11-20 15:00:00 TS 16.0500 85.1213 main 270 257 _________PO___ -1 16.1999 85.2426 TC 45 15.9000 85.0000 3 7 40
1885322N12082 1885 53 NI BB NOT_NAMED 1885-11-20 18:00:00 TS 16.3395 85.3783 main 262 248 _________OP___ -1 16.5000 85.5000 TC 45 16.1790 85.2567 3 8 43
1885322N12082 1885 53 NI BB NOT_NAMED 1885-11-20 21:00:00 TS 16.6074 85.6601 main 254 246 _________PP___ -1 16.7575 85.7926 TC 45 16.4574 85.5277 3 8 46
1885322N12082 1885 53 NI BB NOT_NAMED 1885-11-21 00:00:00 TS 16.8661 85.9549 main 253 253 _________OP___ -1 17.0000 86.1000 TC 45 16.7321 85.8099 3 8 48
1885322N12082 1885 53 NI BB NOT_NAMED 1885-11-21 03:00:00 TS 17.1250 86.2500 main 261 253 _________PO___ -1 17.2500 86.4001 TC 45 17.0000 86.1000 3 8 48
1885322N12082 1885 53 NI BB NOT_NAMED 1885-11-21 06:00:00 TS 17.3806 86.5445 main 254 254 _________OP___ -1 17.5000 86.7000 TC 45 17.2611 86.3890 3 8 48
1885322N12082 1885 53 NI BB NOT_NAMED 1885-11-21 09:00:00 TS 17.6324 86.8427 main 267 246 _________PP___ -1 17.7500 87.0001 TC 45 17.5148 86.6853 3 8 49
1885322N12082 1885 53 NI BB NOT_NAMED 1885-11-21 12:00:00 TS 17.8805 87.1445 main 246 237 _________OP___ -1 18.0000 87.3000 TC 45 17.7611 86.9890 3 8 49
1885322N12082 1885 53 NI BB NOT_NAMED 1885-11-21 15:00:00 TS 18.1287 87.4463 main 237 228 _________PO___ -1 18.2574 87.5926 TC 45 18.0000 87.3000 3 7 51
1885322N12082 1885 53 NI BB NOT_NAMED 1885-11-21 18:00:00 TS 18.3476 87.7473 main 234 230 _________OP___ -1 18.5000 87.9000 TC 45 18.1952 87.5946 3 7 55
1885322N12082 1885 53 NI BB NOT_NAMED 1885-11-21 21:00:00 TS 18.5296 88.0599 main 244 237 _________PP___ -1 18.6698 88.2205 TC 45 18.3894 87.8994 3 8 57
1885322N12082 1885 53 NI BB NOT_NAMED 1885-11-22 00:00:00 TS 18.7569 88.4147 main 244 244 _________OP___ -1 18.9000 88.6000 TC 45 18.6138 88.2293 3 9 52
1885322N12082 1885 53 NI BB NOT_NAMED 1885-11-22 03:00:00 TS 19.1063 88.8424 main 257 235 _________PO___ -1 19.3126 89.0848 TC 45 18.9000 88.6000 3 12 48
1885322N12082 1885 53 NI BB NOT_NAMED 1885-11-22 06:00:00 TS 19.5387 89.3198 main 235 193 _________OP___ -1 19.8000 89.6000 TC 45 19.2775 89.0396 3 13 46
1885322N12082 1885 53 NI BB NOT_NAMED 1885-11-22 09:00:00 TS 19.9801 89.7887 main 193 156 _________PP___ -1 20.2423 90.0579 TC 45 19.7179 89.5196 3 13 44
1885322N12082 1885 53 NI BB NOT_NAMED 1885-11-22 12:00:00 TS 20.4497 90.2574 main 156 113 _________OP___ -1 20.7000 90.5000 TC 45 20.1994 90.0149 3 13 42
1885322N12082 1885 53 NI BB NOT_NAMED 1885-11-22 15:00:00 TS 20.9462 90.7288 main 113 83 _________PO___ -1 21.1924 90.9577 TC 41 20.7000 90.5000 3 13 41
1885322N12082 1885 53 NI BB NOT_NAMED 1885-11-22 18:00:00 TS 21.4155 91.1457 main 83 41 _________OP___ -1 21.7000 91.4000 TC 37 21.2021 90.9550 3 12 39
1885322N12082 1885 53 NI BB NOT_NAMED 1885-11-22 21:00:00 TS 21.9027 91.5539 main 30 0 _________PP___ -1 22.2026 91.8095 TC 33 21.7027 91.3835 3 12 37
1885322N12082 1885 53 NI BB NOT_NAMED 1885-11-23 00:00:00 TS 22.3679 91.9302 main 0 0 _________OP___ -1 22.7000 92.2000 TC 30 22.2019 91.7952 3 10 37
1885322N12082 1885 53 NI BB NOT_NAMED 1885-11-23 03:00:00 NR 22.7000 92.2000 main 0 __________O___ -1 TC 22.7000 92.2000 1 8 37

About IBTrACS Database

This database is a web-friendly format of International Best Track Archive for Climate Stewardship (IBTrACS), a global best track data archive curated by NOAA dating back to 1842.

Updated: 2021-10-08